ADDS METAR Data INFO
IDs: Format: Raw Decoded Include TAF

Data at: 0200 UTC 17 Oct 2017

PAWN 170156Z AUTO 35004KT 10SM OVC050 00/M01 A2962 RMK AO2 SLP044 T00001011 FZRANO
PAWN 170112Z AUTO 35003KT 10SM FEW014 OVC050 01/M01 A2962 RMK AO2 FZRANO
PAWN 170103Z AUTO 00000KT 10SM FEW006 BKN014 OVC050 01/M01 A2963 RMK AO2 FZRANO
PAWN 170056Z AUTO 35003KT 10SM BKN014 OVC050 01/M01 A2963 RMK AO2 SLP047 T00061006 FZRANO
PAWN 162356Z AUTO 00000KT 10SM OVC050 01/M01 A2963 RMK AO2 SLP049 T00061006 10006 21006 58000 FZRANO
PAWN 162304Z AUTO 00000KT 10SM SCT005 OVC046 00/M01 A2963 RMK AO2 FZRANO
PAWN 162256Z AUTO 02003KT 10SM BKN005 OVC046 00/M01 A2964 RMK AO2 SLPNO T00001011 FZRANO
PAWN 162156Z AUTO 36005KT 10SM OVC017 M01/M01 A2963 RMK AO2 SLP049 T10061011 FZRANO
PAWN 162129Z AUTO 35004KT 10SM OVC016 M01/M01 A2963 RMK AO2 FZRANO
PAWN 162103Z AUTO 36004KT 10SM FEW006 BKN010 OVC018 M01/M01 A2963 RMK AO2 FZRANO
PAWN 162008Z AUTO VRB03KT 10SM SCT003 OVC010 M01/M01 A2963 RMK AO2 FZRANO
PAWN 161956Z AUTO 01003KT 10SM BKN003 OVC010 M01/M01 A2963 RMK AO2 SLP048 T10061011 FZRANO
PAWN 161928Z AUTO 01003KT 9SM OVC003 M01/M01 A2963 RMK AO2 FZRANO
PAWN 161854Z AUTO 01003KT 1 1/4SM BR OVC005 M01/M01 A2962 RMK AO2 CIG 003V008 FZRANO
PAWN 161847Z AUTO 36005KT 1SM BR OVC005 M01/M01 A2963 RMK AO2 FZRANO
PAWN 161829Z AUTO 36004KT 1SM BR OVC005 M01/M01 A2962 RMK AO2 FZRANO
PAWN 161817Z AUTO 35004KT 1 1/2SM BR BKN005 OVC009 M01/M01 A2962 RMK AO2 FZRANO
PAWN 161805Z AUTO 35004KT 2SM BR BKN005 OVC010 M01/M01 A2962 RMK AO2 FZRANO
PAWN 161756Z AUTO 35004KT 4SM BR BKN005 OVC010 M01/M01 A2962 RMK AO2 SLPNO 60000 T10061011 10000 21006 53001 FZRANO
PAWN 161656Z AUTO 36004KT 10SM OVC003 M01/M01 A2962 RMK AO2 SLP045 T10061011 FZRANO
PAWN 161637Z AUTO 36004KT 10SM BKN003 OVC010 M01/M01 A2962 RMK AO2 FZRANO
PAWN 161629Z AUTO 35004KT 10SM SCT003 OVC010 M01/M01 A2962 RMK AO2 FZRANO
PAWN 161556Z AUTO 01003KT 10SM BKN008 OVC013 M01/M01 A2962 RMK AO2 UPE22 CIG 003V010 SLP045 P0000 T10061011 FZRANO
PAWN 161540Z AUTO 35004KT 10SM BKN008 OVC013 M01/M01 A2962 RMK AO2 UPE22 CIG 004V011 P0000 FZRANO
PAWN 161522Z AUTO 36003KT 10SM BKN005 OVC011 M01/M01 A2962 RMK AO2 UPE22 P0000 FZRANO
PAWN 161456Z AUTO 35005KT 5SM UP BR OVC003 M01/M01 A2962 RMK AO2 UPB1359 SLP045 P0000 60000 T10061006 58001 FZRANO
PAWN 161434Z AUTO 36004KT 4SM UP BR BKN003 OVC010 00/M01 A2962 RMK AO2 UPB1359 P0000 FZRANO
PAWN 161400Z AUTO 36004KT 2 1/2SM UP BR SCT003 BKN008 OVC014 00/M01 A2962 RMK AO2 UPB1359 P0000 FZRANO
PAWN 161356Z AUTO 36004KT 3SM BR BKN003 BKN008 OVC012 00/M01 A2962 RMK AO2 SLP045 T00001006 FZRANO
PAWN 161343Z AUTO 36005KT 2 1/2SM BR BKN003 OVC010 00/M01 A2962 RMK AO2 FZRANO
PAWN 161325Z AUTO 35006KT 2SM BR FEW003 OVC010 00/M01 A2963 RMK AO2 FZRANO
PAWN 161318Z AUTO 35004KT 3SM BR FEW003 OVC010 00/M01 A2963 RMK AO2 FZRANO
PAWN 161256Z AUTO 36004KT 9SM OVC003 00/M01 A2963 RMK AO2 SLP047 T00001006 FZRANO
PAWN 161153Z AUTO 01004KT 4SM BR BKN003 OVC009 00/M01 A2962 RMK AO2 CIG 003V007 FZRANO
PAWN 161134Z AUTO 01004KT 2 1/2SM BR BKN003 OVC007 A2963 RMK AO2 FZRANO
PAWN 161056Z AUTO 01004KT 4SM HZ OVC009 A2962 RMK AO2 UPE25 CIG 007V010 SLPNO P0000 FZRANO
PAWN 160956Z AUTO 01005KT 4SM UP BR OVC007 00/M01 A2963 RMK AO2 CIG 007V010 SLP048 P0000 T00001006 FZRANO
PAWN 160911Z AUTO 03004KT 5SM UP BR BKN009 OVC019 00/M01 A2962 RMK AO2 CIG 007V012 P0000 FZRANO
PAWN 160856Z AUTO 03004KT 3SM UP BR FEW005 BKN011 OVC019 00/M01 A2962 RMK AO2 UPB21SNE21 SLP045 P0000 60001 T00001006 53002 FZRANO
PAWN 160851Z AUTO 03004KT 2 1/2SM UP BR FEW006 BKN011 OVC019 00/M01 A2962 RMK AO2 UPB21SNE21 P0000 FZRANO
PAWN 160756Z AUTO 01003KT 4SM -SN BR OVC007 00/M01 A2962 RMK AO2 SLP043 P0000 T00001006 400110000 FZRANO
PAWN 160721Z AUTO 01004KT 4SM -SN BKN007 OVC012 A2961 RMK AO2 CIG 007V011 P0000 FZRANO
PAWN 160656Z AUTO 02004KT 2SM -SN OVC011 A2961 RMK AO2 SLPNO P0001 FZRANO
PAWN 160654Z AUTO 02004KT 2SM -SN OVC011 A2961 RMK AO2 P0001 FZRANO
PAWN 160556Z AUTO 02003KT 2SM -SN FEW003 BKN008 OVC022 A2961 RMK AO2 SLPNO P0001 60010 51004 FZRANO
PAWN 160551Z AUTO 03003KT 2 1/2SM -SN FEW003 BKN008 OVC020 A2961 RMK AO2 P0001 FZRANO
PAWN 160503Z AUTO 03003KT 2SM -SN SCT005 BKN009 OVC016 A2960 RMK AO2 P0000 FZRANO
PAWN 160456Z AUTO 01003KT 1 3/4SM -SN BR BKN005 BKN009 OVC016 00/M01 A2960 RMK AO2 SLP039 P0001 T00001006 FZRANO
PAWN 160435Z AUTO 03003KT 2SM -SN BR BKN005 OVC009 00/M01 A2960 RMK AO2 VIS 1 3/4V4 CIG 002V008 P0000 FZRANO
PAWN 160403Z AUTO 03004KT 2 1/2SM -SN BR FEW009 SCT014 OVC023 00/M01 A2960 RMK AO2 VIS 2V3 P0000 FZRANO
PAWN 160356Z AUTO 03003KT 1 3/4SM -SN BR FEW009 OVC023 00/M01 A2960 RMK AO2 UPB21E40SNE21B40 SLP038 P0001 T00001006 FZRANO
PAWN 160339Z AUTO 04004KT 2 1/2SM UP BR BKN009 OVC023 00/M01 A2960 RMK AO2 UPB21SNE21 CIG 007V012 P0000 FZRANO
PAWN 160336Z AUTO 04004KT 2 1/2SM UP BR SCT011 OVC023 00/M01 A2960 RMK AO2 UPB21SNE21 P0000 FZRANO
PAWN 160322Z AUTO 04003KT 6SM UP BR BKN011 OVC023 00/M01 A2960 RMK AO2 UPB21SNE21 P0000 FZRANO
PAWN 160314Z AUTO 02004KT 2SM -SN BR BKN009 OVC014 00/M01 A2960 RMK AO2 CIG 008V013 P0000 FZRANO
PAWN 160310Z AUTO 02004KT 1 1/4SM -SN BR FEW009 BKN012 OVC020 00/M01 A2960 RMK AO2 P0000 FZRANO
PAWN 160256Z AUTO 02003KT 1 1/4SM -SN BR FEW003 BKN010 OVC030 00/M01 A2960 RMK AO2 RAE00UPB44E49SNB00E44B49 CIG 008V013 SLP038 P0005 60007 T00001006 58000 FZRANO
PAWN 160238Z AUTO 02003KT 2 1/2SM -SN BR SCT003 OVC012 00/M01 A2960 RMK AO2 RAE00SNB00 P0004 FZRANO
PAWN 160236Z AUTO 02003KT 2SM -SN BR BKN003 OVC012 00/M01 A2960 RMK AO2 RAE00SNB00 P0004 FZRANO
PAWN 160226Z AUTO 02004KT 1 1/4SM -SN BR SCT003 OVC012 01/M01 A2960 RMK AO2 RAE00SNB00 P0003 FZRANO
PAWN 160223Z AUTO 02003KT 3/4SM -SN BR SCT003 OVC012 01/M01 A2960 RMK AO2 RAE00SNB00 P0003 FZRANO
PAWN 160202Z AUTO 05004KT 2SM -SN BR BKN003 OVC010 01/00 A2960 RMK AO2 RAE00SNB00 CIG 002V007 P0000 FZRANO
PAWN 160156Z AUTO 06004KT 3SM -RA BR BKN005 OVC010 01/00 A2960 RMK AO2 UPE26RAB26SNB0058E11 CIG 003V008 SLP039 P0001 T00060000 FZRANO
PAWN 160146Z AUTO 05004KT 4SM -RA BR SCT005 OVC010 01/00 A2960 RMK AO2 UPE26RAB26SNB0058E11 CIG 008V013 P0001 FZRANO
PAWN 160108Z AUTO 05003KT 3SM -SN BR OVC003 01/00 A2960 RMK AO2 UPE0058SNB0058 P0000 FZRANO
PAWN 160056Z AUTO 06004KT 2 1/2SM UP BR OVC003 01/00 A2960 RMK AO2 UPB53SNE53 CIG 002V007 SLP039 P0001 T00060000 FZRANO
PAWN 160052Z AUTO 05004KT 3SM -SN BR OVC003 01/00 A2960 RMK AO2 CIG 002V007 P0001 FZRANO
PAWN 152356Z AUTO 04003KT 4SM -SN BR BKN007 OVC011 01/00 A2961 RMK AO2 CIG 002V009 SLP040 P0001 60005 T00060000 10006 20000 58002 FZRANO
PAWN 152312Z AUTO 05003KT 4SM -SN BR BKN005 OVC009 01/00 A2961 RMK AO2 CIG 002V007 P0000 FZRANO
PAWN 152303Z AUTO 05004KT 2 1/2SM -SN BR BKN005 OVC009 01/00 A2961 RMK AO2 VIS 1 3/4V4 CIG 002V008 P0000 FZRANO
PAWN 152230Z AUTO 05003KT 2SM -SN BR OVC009 01/M01 A2962 RMK AO2 CIG 007V012 P0001 FZRANO
PAWN 152156Z AUTO 04004KT 1 1/2SM -SN BR SCT005 OVC011 01/M01 A2962 RMK AO2 SLP044 P0001 T00061006 FZRANO
PAWN 152125Z AUTO 05003KT 1 3/4SM -SN BR FEW002 BKN013 OVC021 01/00 A2961 RMK AO2 VIS 1V5 P0000 FZRANO
PAWN 152113Z AUTO 04004KT 5SM -SN BR SCT002 BKN016 OVC021 01/M01 A2961 RMK AO2 P0000 FZRANO
PAWN 152041Z AUTO 04004KT 1SM -SN BR SCT002 BKN008 OVC023 01/M01 A2961 RMK AO2 CIG 007V012 P0001 FZRANO
PAWN 151956Z AUTO 02004KT 1 1/2SM -SN BR BKN012 OVC020 01/M01 A2961 RMK AO2 SLP040 P0000 T00061006 FZRANO
PAWN 151941Z AUTO 01004KT 1 1/2SM -SN BR BKN010 OVC020 01/M01 A2961 RMK AO2 VIS 1V4 CIG 007V013 P0000 FZRANO
PAWN 151826Z AUTO 04006KT 3SM -SN BR FEW004 SCT007 OVC014 00/M01 A2960 RMK AO2 P0000 FZRANO
PAWN 151818Z AUTO 03005KT 1 1/2SM -SN BR SCT004 OVC014 00/M01 A2960 RMK AO2 P0000 FZRANO
PAWN 151810Z AUTO 03004KT 1 3/4SM -SN BR OVC014 00/M01 A2961 RMK AO2 VIS 1V5 P0000 FZRANO
PAWN 151724Z AUTO 03004KT 9SM -SN OVC014 00/M01 A2961 RMK AO2 P0000 FZRANO
PAWN 151556Z AUTO 03005KT 10SM UP OVC018 00/M01 A2961 RMK AO2 SLP043 P0000 T00001006 FZRANO
PAWN 151456Z AUTO 04006KT 9SM UP OVC018 00/M01 A2962 RMK AO2 UPB01SNE01B44E54 SLP045 P0000 60000 T00001011 56009 FZRANO